createdAt,value
2023-05-17T00:00:24.548Z,82.0
2023-05-17T00:12:24.424Z,82.2
2023-05-17T00:24:24.493Z,82.9
2023-05-17T00:36:24.562Z,82.9
2023-05-17T00:48:24.584Z,83.5
2023-05-17T01:00:24.551Z,82.3
2023-05-17T01:12:24.500Z,83.3
2023-05-17T01:24:24.528Z,84.4
2023-05-17T01:36:24.537Z,85.0
2023-05-17T01:48:24.422Z,85.7
2023-05-17T02:00:24.451Z,86.3
2023-05-17T02:12:24.424Z,86.7
2023-05-17T02:24:24.441Z,87.3
2023-05-17T02:36:24.538Z,88.2
2023-05-17T02:48:24.502Z,88.0
2023-05-17T03:00:24.548Z,89.6
2023-05-17T03:12:24.545Z,90.4
2023-05-17T03:24:24.479Z,90.4
2023-05-17T03:36:24.450Z,90.2
2023-05-17T03:48:24.536Z,89.7
2023-05-17T04:00:24.524Z,90.1
2023-05-17T04:12:24.445Z,90.4
2023-05-17T04:24:24.520Z,89.4
2023-05-17T04:36:24.549Z,89.1
2023-05-17T04:48:24.495Z,89.4
2023-05-17T05:00:24.501Z,89.4
2023-05-17T05:12:24.426Z,89.6
2023-05-17T05:24:24.482Z,90.3
2023-05-17T05:36:24.522Z,89.9
2023-05-17T05:48:24.521Z,88.7
2023-05-17T06:00:24.423Z,88.8
2023-05-17T06:12:24.547Z,89.1
2023-05-17T06:24:25.536Z,88.7
2023-05-17T06:36:25.398Z,88.3
2023-05-17T06:48:24.624Z,87.9
2023-05-17T07:00:24.424Z,87.7
2023-05-17T07:12:24.481Z,87.2
2023-05-17T07:24:24.458Z,87.3
2023-05-17T07:36:24.593Z,84.3
2023-05-17T07:48:24.641Z,75.5
2023-05-17T08:00:24.571Z,76.8
2023-05-17T08:12:24.532Z,78.3
2023-05-17T08:24:24.434Z,73.6
2023-05-17T08:36:24.462Z,75.2
2023-05-17T08:48:24.529Z,71.6
2023-05-17T09:00:24.529Z,70.0
2023-05-17T09:12:25.838Z,67.8
2023-05-17T09:24:25.246Z,63.6
2023-05-17T09:36:24.848Z,55.8
2023-05-17T09:48:24.572Z,58.4
2023-05-17T10:00:24.515Z,54.6
2023-05-17T10:12:25.594Z,54.2
2023-05-17T10:24:24.555Z,52.8
2023-05-17T10:36:24.448Z,52.0
2023-05-17T10:48:24.606Z,50.9
2023-05-17T11:00:24.426Z,49.1
2023-05-17T11:12:24.436Z,48.6
2023-05-17T11:24:24.425Z,48.9
2023-05-17T11:36:24.723Z,50.3
2023-05-17T11:48:24.575Z,47.2
2023-05-17T12:00:24.423Z,46.7
2023-05-17T12:12:24.430Z,45.1
2023-05-17T12:24:24.508Z,45.1
2023-05-17T12:36:24.523Z,46.9
2023-05-17T12:48:24.441Z,44.5
2023-05-17T13:00:24.425Z,45.0
2023-05-17T13:12:24.673Z,45.3
2023-05-17T13:24:24.432Z,42.6
2023-05-17T13:36:24.554Z,42.5
2023-05-17T13:48:24.616Z,44.9
2023-05-17T14:00:24.433Z,43.9
2023-05-17T14:12:24.432Z,44.8
2023-05-17T14:24:24.451Z,43.0
2023-05-17T14:36:24.460Z,41.5
2023-05-17T14:48:24.594Z,40.9
2023-05-17T15:00:24.505Z,40.5
2023-05-17T15:12:24.429Z,43.2
2023-05-17T15:24:24.446Z,45.3
2023-05-17T15:36:24.428Z,40.8
2023-05-17T15:48:24.541Z,42.0
2023-05-17T16:00:24.424Z,43.0
2023-05-17T16:12:24.435Z,43.0
2023-05-17T16:24:24.429Z,42.9
2023-05-17T16:36:24.515Z,42.3
2023-05-17T16:48:24.466Z,44.2
2023-05-17T17:00:24.444Z,44.8
2023-05-17T17:12:25.540Z,42.5
2023-05-17T17:24:24.427Z,46.6
2023-05-17T17:36:24.539Z,45.0
2023-05-17T17:48:24.510Z,46.3
2023-05-17T18:00:24.538Z,48.8
2023-05-17T18:12:24.546Z,48.3
2023-05-17T18:24:24.536Z,49.2
2023-05-17T18:36:24.441Z,52.0
2023-05-17T18:48:24.427Z,51.7
2023-05-17T19:00:24.550Z,53.1
2023-05-17T19:12:24.482Z,54.1
2023-05-17T19:24:24.531Z,55.5
2023-05-17T19:36:24.524Z,56.3
2023-05-17T19:48:24.539Z,58.2
2023-05-17T20:00:24.496Z,58.7
2023-05-17T20:12:24.493Z,59.9
2023-05-17T20:24:24.574Z,61.1
2023-05-17T20:36:24.520Z,63.0
2023-05-17T20:48:24.431Z,63.4
2023-05-17T21:00:24.546Z,62.3
2023-05-17T21:12:24.548Z,63.0
2023-05-17T21:24:24.540Z,63.6
2023-05-17T21:36:24.524Z,63.7
2023-05-17T21:48:24.455Z,65.0
2023-05-17T22:00:24.428Z,66.7
2023-05-17T22:12:24.423Z,68.5
2023-05-17T22:24:24.487Z,68.5
2023-05-17T22:36:24.582Z,66.9
2023-05-17T22:48:24.430Z,68.2
2023-05-17T23:00:24.485Z,69.7
2023-05-17T23:12:24.493Z,69.4
2023-05-17T23:24:24.441Z,70.9
2023-05-17T23:36:24.434Z,72.4
2023-05-17T23:48:24.445Z,72.9
